Time;durP1;ratioP1;P1;durP2;ratioP2;P2;SDS_P1;SDS_P2;PMS_P1;PMS_P2;Temp;Humidity;BMP_temperature;BMP_pressure;BME280_temperature;BME280_humidity;BME280_pressure;Samples;Min_cycle;Max_cycle;Signal;HPM_P1;HPM_P2
2022/12/18 00:00:49;;;;;;;7.85;5.03;;;;;;;6.86;100.00;62706.78;4998556;28;20350;-75
2022/12/18 00:03:16;;;;;;;4.80;4.40;;;;;;;6.93;100.00;62716.53;4994302;28;20262;-74
2022/12/18 00:05:49;;;;;;;5.60;4.80;;;;;;;6.97;100.00;62720.13;5007707;28;20226;-75
2022/12/18 00:08:16;;;;;;;4.47;4.18;;;;;;;6.99;100.00;62717.13;5011256;28;20199;-75
2022/12/18 00:10:44;;;;;;;5.53;5.05;;;;;;;6.75;100.00;62692.88;5002804;28;20647;-75
2022/12/18 00:13:12;;;;;;;5.32;4.63;;;;;;;6.80;100.00;62702.59;4998549;28;20267;-74
2022/12/18 00:15:40;;;;;;;7.00;5.13;;;;;;;6.70;100.00;62690.25;4998450;28;20590;-75
2022/12/18 00:18:07;;;;;;;6.68;5.80;;;;;;;6.84;100.00;62701.66;5006298;28;20263;-74
2022/12/18 00:20:37;;;;;;;7.57;6.05;;;;;;;6.86;100.00;62708.78;5007747;28;20229;-74
2022/12/18 00:23:05;;;;;;;5.88;5.10;;;;;;;6.77;100.00;62697.50;5008918;28;20254;-74
2022/12/18 00:25:34;;;;;;;7.85;5.70;;;;;;;6.75;100.00;62699.97;5007220;28;20606;-75
2022/12/18 00:28:02;;;;;;;5.93;5.40;;;;;;;6.81;100.00;62703.63;4993829;28;20459;-75
2022/12/18 00:30:28;;;;;;;5.75;5.25;;;;;;;6.69;100.00;62691.78;4999048;28;20241;-76
2022/12/18 00:32:58;;;;;;;7.32;5.90;;;;;;;6.73;100.00;62690.31;5006909;28;20207;-75
2022/12/18 00:35:25;;;;;;;7.68;6.32;;;;;;;6.71;100.00;62688.25;5007003;28;20222;-74
2022/12/18 00:37:52;;;;;;;7.68;6.53;;;;;;;6.63;100.00;62680.00;5006145;28;20516;-75
2022/12/18 00:40:19;;;;;;;7.38;6.55;;;;;;;6.67;100.00;62687.19;4993845;28;20196;-74
2022/12/18 00:42:57;;;;;;;6.50;5.95;;;;;;;6.69;100.00;62689.25;5005768;28;20430;-75
2022/12/18 00:45:26;;;;;;;5.53;5.03;;;;;;;6.77;100.00;62696.97;5000538;28;20411;-73
2022/12/18 00:47:54;;;;;;;6.40;5.80;;;;;;;6.70;100.00;62685.22;5006084;28;20203;-75
2022/12/18 00:50:22;;;;;;;7.10;6.18;;;;;;;6.70;100.00;62685.22;5007634;28;20499;-74
2022/12/18 00:52:49;;;;;;;8.30;6.03;;;;;;;6.55;100.00;62671.75;5004642;28;20203;-74
2022/12/18 00:55:17;;;;;;;10.18;7.03;;;;;;;6.61;100.00;62675.91;5005407;28;20207;-73
2022/12/18 00:57:44;;;;;;;7.97;6.57;;;;;;;6.61;100.00;62683.00;5006168;28;20199;-74
2022/12/18 01:00:14;;;;;;;9.07;6.45;;;;;;;6.62;100.00;62682.03;5005766;28;20196;-74
2022/12/18 01:02:42;;;;;;;7.38;5.78;;;;;;;6.69;100.00;62686.19;5004500;28;20210;-74
2022/12/18 01:05:10;;;;;;;7.38;6.07;;;;;;;6.52;100.00;62673.72;5006365;28;20393;-74
2022/12/18 01:07:39;;;;;;;6.88;6.25;;;;;;;6.34;100.00;62652.63;5004538;28;20215;-74
2022/12/18 01:10:12;;;;;;;7.00;5.97;;;;;;;6.32;100.00;62653.09;4992843;28;20200;-75
2022/12/18 01:12:39;;;;;;;8.88;6.85;;;;;;;6.47;100.00;62664.00;5001757;28;20227;-74
2022/12/18 01:15:14;;;;;;;9.07;6.35;;;;;;;6.33;100.00;62649.06;5005218;28;20195;-75
2022/12/18 01:17:41;;;;;;;7.22;6.60;;;;;;;6.09;100.00;62626.84;4999318;28;20371;-75
2022/12/18 01:20:09;;;;;;;6.43;5.72;;;;;;;6.16;100.00;62631.56;5009194;28;20427;-73
2022/12/18 01:22:38;;;;;;;7.82;6.28;;;;;;;6.15;100.00;62631.03;5004252;28;20207;-75
2022/12/18 01:25:06;;;;;;;8.38;6.68;;;;;;;6.18;100.00;62633.63;5006076;28;20278;-74
2022/12/18 01:27:34;;;;;;;8.52;6.85;;;;;;;6.19;100.00;62637.69;5004113;28;20234;-74
2022/12/18 01:30:01;;;;;;;7.70;6.68;;;;;;;5.88;100.00;62605.22;4999693;28;20204;-74
2022/12/18 01:32:30;;;;;;;7.30;6.55;;;;;;;5.92;100.00;62607.31;4989924;28;20234;-75
2022/12/18 01:34:57;;;;;;;9.70;6.55;;;;;;;5.93;100.00;62605.81;5004652;28;20250;-74
2022/12/18 01:37:24;;;;;;;7.47;6.53;;;;;;;5.71;100.00;62586.16;5004579;28;20226;-75
2022/12/18 01:39:54;;;;;;;9.13;6.70;;;;;;;5.76;100.00;62590.81;4999744;28;20207;-75
2022/12/18 01:42:21;;;;;;;12.95;8.13;;;;;;;5.62;100.00;62576.91;5004338;28;20227;-75
2022/12/18 01:45:04;;;;;;;9.80;7.47;;;;;;;5.65;100.00;62579.47;5005545;28;20211;-74
2022/12/18 01:47:39;;;;;;;13.27;8.15;;;;;;;5.64;100.00;62581.47;4992472;28;20246;-75
2022/12/18 01:50:10;;;;;;;9.70;6.88;;;;;;;5.67;100.00;62584.59;5006213;28;20202;-73
2022/12/18 01:52:38;;;;;;;10.35;8.32;;;;;;;5.75;100.00;62589.78;5003567;28;20199;-74
2022/12/18 01:55:08;;;;;;;9.30;7.95;;;;;;;5.62;100.00;62574.38;5006484;28;20219;-75
2022/12/18 01:57:36;;;;;;;11.00;8.45;;;;;;;5.65;100.00;62579.47;5001090;28;20191;-75
2022/12/18 02:00:08;;;;;;;10.90;8.63;;;;;;;5.64;100.00;62583.50;5004758;28;20215;-75
2022/12/18 02:02:36;;;;;;;11.90;8.52;;;;;;;5.67;100.00;62581.53;5004128;28;20554;-74
2022/12/18 02:05:04;;;;;;;11.65;8.20;;;;;;;5.48;100.00;62565.00;4986182;28;20208;-75
2022/12/18 02:07:43;;;;;;;9.50;7.78;;;;;;;5.53;100.00;62572.69;5000235;28;20258;-76
2022/12/18 02:10:20;;;;;;;10.88;8.48;;;;;;;5.36;100.00;62550.13;5005113;28;20257;-75
2022/12/18 02:12:53;;;;;;;11.13;8.55;;;;;;;5.45;100.00;62561.41;5003704;28;20202;-74
2022/12/18 02:15:27;;;;;;;11.57;9.23;;;;;;;5.21;100.00;62536.69;4998890;28;20215;-74
2022/12/18 02:18:02;;;;;;;11.65;8.88;;;;;;;5.19;100.00;62535.13;5004822;28;20220;-75
2022/12/18 02:20:36;;;;;;;10.73;8.43;;;;;;;5.24;100.00;62542.81;5002454;28;20224;-75
2022/12/18 02:23:13;;;;;;;15.45;8.10;;;;;;;5.29;100.00;62542.38;4995381;28;20207;-75
2022/12/18 02:26:06;;;;;;;10.10;9.00;;;;;;;5.27;100.00;62545.38;5004218;28;20273;-75
2022/12/18 02:28:37;;;;;;;12.23;8.98;;;;;;;5.21;100.00;62541.72;5005487;28;20192;-75
2022/12/18 02:31:07;;;;;;;13.13;9.80;;;;;;;5.30;100.00;62543.94;5004414;28;20219;-75
2022/12/18 02:33:36;;;;;;;14.48;8.68;;;;;;;5.46;100.00;62559.91;5003671;28;20195;-74
2022/12/18 02:36:05;;;;;;;12.27;9.57;;;;;;;5.23;100.00;62534.19;5014392;28;20223;-75
2022/12/18 02:38:33;;;;;;;12.48;9.43;;;;;;;5.29;100.00;62544.91;5004564;28;20199;-75
2022/12/18 02:41:03;;;;;;;11.43;9.00;;;;;;;5.30;100.00;62541.41;5000385;28;20220;-72
2022/12/18 02:43:30;;;;;;;12.32;9.50;;;;;;;4.98;100.00;62516.03;4994823;28;20219;-74
2022/12/18 02:46:02;;;;;;;10.43;8.77;;;;;;;5.08;100.00;62523.81;4994400;28;20345;-74
2022/12/18 02:48:31;;;;;;;16.33;10.23;;;;;;;5.11;100.00;62526.38;5005114;28;20215;-76
2022/12/18 02:51:09;;;;;;;11.40;8.30;;;;;;;5.16;100.00;62526.50;5004769;28;20215;-74
2022/12/18 02:53:44;;;;;;;13.20;9.80;;;;;;;5.08;100.00;62526.31;4998136;28;20223;-74
2022/12/18 02:56:18;;;;;;;14.93;10.27;;;;;;;4.88;100.00;62500.16;4990897;28;20218;-74
2022/12/18 02:58:55;;;;;;;12.70;9.80;;;;;;;4.63;100.00;62477.47;4990226;28;20202;-74
2022/12/18 03:01:31;;;;;;;11.65;8.48;;;;;;;4.86;100.00;62503.16;4992508;28;20273;-75
2022/12/18 03:04:05;;;;;;;13.82;9.05;;;;;;;4.83;100.00;62495.56;5002421;28;20206;-75
2022/12/18 03:06:38;;;;;;;13.70;9.57;;;;;;;4.68;100.00;62485.66;4985163;28;20251;-75
2022/12/18 03:09:10;;;;;;;13.13;9.10;;;;;;;4.76;100.00;62490.34;4986511;28;20208;-74
2022/12/18 03:14:30;;;;;;;11.63;8.77;;;;;;;4.59;100.00;62471.34;4987397;28;20202;-74
2022/12/18 03:17:02;;;;;;;10.43;8.52;;;;;;;4.63;100.00;62474.94;5002805;28;20230;-74
2022/12/18 03:19:33;;;;;;;12.85;9.43;;;;;;;4.63;100.00;62475.47;5000870;28;20529;-75
2022/12/18 03:22:04;;;;;;;12.35;8.63;;;;;;;4.50;100.00;62464.59;5003688;28;20282;-75
2022/12/18 03:24:34;;;;;;;11.38;9.02;;;;;;;4.72;100.00;62489.78;5004719;28;20204;-74
2022/12/18 03:27:06;;;;;;;13.43;9.35;;;;;;;4.71;100.00;62485.72;4988399;28;20235;-74
2022/12/18 03:29:36;;;;;;;12.73;9.00;;;;;;;4.62;100.00;62476.94;5002404;28;20210;-75
2022/12/18 03:32:10;;;;;;;11.18;8.68;;;;;;;4.82;100.00;62491.97;5003861;28;20220;-75
2022/12/18 03:34:41;;;;;;;11.27;8.57;;;;;;;4.93;100.00;62503.31;5004072;28;20242;-74
2022/12/18 03:37:08;;;;;;;11.52;8.23;;;;;;;4.98;100.00;62513.50;4999718;28;20223;-75
2022/12/18 03:39:35;;;;;;;9.82;7.30;;;;;;;4.76;100.00;62490.34;5000337;28;20250;-75
2022/12/18 03:42:09;;;;;;;12.02;8.73;;;;;;;4.87;100.00;62499.66;5003815;28;20227;-74
2022/12/18 03:44:43;;;;;;;11.80;8.15;;;;;;;4.83;100.00;62498.06;4997514;28;20213;-74
2022/12/18 03:47:16;;;;;;;9.75;8.20;;;;;;;4.88;100.00;62502.69;5000560;28;20442;-74
2022/12/18 03:49:48;;;;;;;10.23;6.80;;;;;;;4.81;100.00;62490.97;5005997;28;20202;-75
2022/12/18 03:52:20;;;;;;;8.75;7.50;;;;;;;4.65;100.00;62480.06;5010046;28;20262;-75
2022/12/18 03:54:48;;;;;;;7.10;5.65;;;;;;;4.66;100.00;62478.56;5009299;28;20226;-74
2022/12/18 03:57:19;;;;;;;8.88;5.47;;;;;;;4.58;100.00;62472.31;5004852;28;20305;-74
2022/12/18 03:59:48;;;;;;;6.82;5.43;;;;;;;4.33;100.00;62444.09;5011140;28;20210;-74
2022/12/18 04:02:17;;;;;;;6.20;5.60;;;;;;;4.26;100.00;62437.38;5009964;28;20234;-74
2022/12/18 04:04:47;;;;;;;7.70;5.47;;;;;;;4.26;100.00;62436.88;5006257;28;20207;-76
2022/12/18 04:07:15;;;;;;;7.20;5.75;;;;;;;4.18;100.00;62431.16;4994252;28;20231;-75
2022/12/18 04:09:44;;;;;;;7.60;6.65;;;;;;;4.21;100.00;62434.25;5010945;28;20275;-75
2022/12/18 04:12:11;;;;;;;7.70;6.32;;;;;;;4.29;100.00;62439.97;4997336;28;20232;-76
2022/12/18 04:14:40;;;;;;;4.80;4.35;;;;;;;4.04;100.00;62411.72;5007221;28;20250;-74
2022/12/18 04:17:06;;;;;;;5.45;4.55;;;;;;;4.18;100.00;62431.16;4994988;28;20269;-75
2022/12/18 04:19:33;;;;;;;7.10;5.82;;;;;;;4.26;100.00;62434.34;4997291;28;20207;-74
2022/12/18 04:22:00;;;;;;;5.93;4.72;;;;;;;4.12;100.00;62422.47;5008655;28;20440;-75
2022/12/18 04:24:27;;;;;;;6.55;5.15;;;;;;;4.26;100.00;62437.38;5008717;28;20274;-75
2022/12/18 04:26:54;;;;;;;5.13;4.63;;;;;;;4.25;100.00;62438.34;4999200;28;20249;-75
2022/12/18 04:29:21;;;;;;;6.65;5.28;;;;;;;4.41;100.00;62452.81;4994835;28;20485;-75
2022/12/18 04:31:49;;;;;;;9.93;6.13;;;;;;;4.43;100.00;62459.41;5000211;28;20243;-74
2022/12/18 04:34:16;;;;;;;6.40;5.28;;;;;;;4.36;100.00;62444.66;5009279;28;20531;-73
2022/12/18 04:36:43;;;;;;;7.28;5.50;;;;;;;4.31;100.00;62444.53;5006691;28;20223;-74
2022/12/18 04:39:10;;;;;;;5.47;4.95;;;;;;;4.25;100.00;62440.88;5009489;28;20235;-74
2022/12/18 04:41:36;;;;;;;5.53;4.38;;;;;;;4.24;100.00;62432.28;5011553;28;20230;-74
2022/12/18 04:44:04;;;;;;;5.22;4.72;;;;;;;4.25;100.00;62436.34;5010731;28;20258;-76
2022/12/18 04:46:31;;;;;;;5.88;5.28;;;;;;;4.29;100.00;62435.44;5006776;28;20233;-75
2022/12/18 04:48:59;;;;;;;5.07;3.95;;;;;;;4.21;100.00;62429.22;5009444;28;20195;-74
2022/12/18 04:51:26;;;;;;;6.53;4.30;;;;;;;4.26;100.00;62439.91;4993547;28;20243;-76
2022/12/18 04:53:53;;;;;;;7.00;5.38;;;;;;;4.15;100.00;62430.59;5007956;28;20221;-76
2022/12/18 04:56:20;;;;;;;9.57;6.05;;;;;;;4.13;100.00;62420.97;5007775;28;20231;-75
2022/12/18 04:58:47;;;;;;;7.95;5.68;;;;;;;4.12;100.00;62423.00;5008551;28;20226;-75
2022/12/18 05:01:16;;;;;;;6.90;4.82;;;;;;;4.22;100.00;62435.78;4998829;28;20236;-76
2022/12/18 05:03:43;;;;;;;8.10;6.07;;;;;;;4.25;100.00;62435.84;4986794;28;20392;-75
2022/12/18 05:06:11;;;;;;;7.50;5.60;;;;;;;4.18;100.00;62423.59;5013633;28;20227;-74
2022/12/18 05:08:38;;;;;;;7.38;5.75;;;;;;;4.19;100.00;62435.22;5006807;28;20195;-76
2022/12/18 05:11:07;;;;;;;7.00;5.43;;;;;;;4.15;100.00;62426.06;5005008;28;20237;-75
2022/12/18 05:13:36;;;;;;;5.95;5.35;;;;;;;4.14;100.00;62429.56;5004912;28;20528;-75
2022/12/18 05:16:03;;;;;;;6.00;5.00;;;;;;;4.21;100.00;62431.72;5002646;28;20281;-75
2022/12/18 05:18:30;;;;;;;7.22;5.35;;;;;;;4.15;100.00;62425.56;5005813;28;20228;-74
2022/12/18 05:20:57;;;;;;;11.63;5.93;;;;;;;4.21;100.00;62434.25;5005315;28;20219;-75
2022/12/18 05:23:26;;;;;;;9.30;6.97;;;;;;;4.08;100.00;62418.34;5006046;28;20200;-75
2022/12/18 05:25:54;;;;;;;8.88;6.63;;;;;;;4.03;100.00;62416.25;5006267;28;20333;-74
2022/12/18 05:28:21;;;;;;;8.20;6.00;;;;;;;4.06;100.00;62413.78;4997993;28;20306;-73
2022/12/18 05:30:50;;;;;;;8.55;6.22;;;;;;;4.06;100.00;62418.81;5006569;28;20468;-75
2022/12/18 05:33:17;;;;;;;9.23;6.40;;;;;;;4.22;100.00;62435.78;5004790;28;20238;-74
2022/12/18 05:35:44;;;;;;;7.97;6.25;;;;;;;4.22;100.00;62435.28;5006102;28;20224;-76
2022/12/18 05:38:11;;;;;;;8.57;5.88;;;;;;;4.27;100.00;62438.41;5008053;28;20246;-74
2022/12/18 05:40:47;;;;;;;7.68;6.50;;;;;;;4.19;100.00;62432.19;5010107;28;20227;-75
2022/12/18 05:43:14;;;;;;;8.57;5.93;;;;;;;4.25;100.00;62433.84;5006674;28;20265;-75
2022/12/18 05:45:41;;;;;;;11.88;7.63;;;;;;;4.18;100.00;62429.16;4994200;28;20395;-74
2022/12/18 05:48:08;;;;;;;10.52;7.18;;;;;;;4.23;100.00;62439.34;4998198;28;20231;-74
2022/12/18 05:50:35;;;;;;;7.55;6.72;;;;;;;4.27;100.00;62443.47;4995696;28;20245;-77
2022/12/18 05:53:02;;;;;;;5.68;4.43;;;;;;;4.14;100.00;62430.06;5005367;28;20218;-76
2022/12/18 05:55:33;;;;;;;10.02;6.78;;;;;;;4.16;100.00;62426.59;5006979;28;20223;-78
2022/12/18 05:58:02;;;;;;;8.93;6.93;;;;;;;4.09;100.00;62417.38;5006833;28;20203;-75
2022/12/18 06:00:29;;;;;;;9.00;7.57;;;;;;;3.98;100.00;62406.06;5005643;28;20606;-77
2022/12/18 06:02:56;;;;;;;8.85;6.95;;;;;;;3.86;100.00;62398.25;5006510;28;20258;-78
2022/12/18 06:05:23;;;;;;;12.43;8.40;;;;;;;3.96;100.00;62411.56;5007186;28;20243;-76
2022/12/18 06:07:50;;;;;;;11.77;8.35;;;;;;;3.97;100.00;62409.56;5003574;28;20254;-76
2022/12/18 06:10:17;;;;;;;9.38;8.07;;;;;;;3.89;100.00;62406.88;5006543;28;20195;-77
2022/12/18 06:12:44;;;;;;;13.60;9.35;;;;;;;3.93;100.00;62405.44;5004603;28;20237;-76
2022/12/18 06:15:13;;;;;;;13.70;9.00;;;;;;;3.99;100.00;62412.13;5002882;28;20221;-77
2022/12/18 06:17:40;;;;;;;13.98;9.02;;;;;;;3.95;100.00;62407.50;5006987;28;20481;-76
2022/12/18 06:20:07;;;;;;;11.60;8.13;;;;;;;4.03;100.00;62411.22;4997786;28;20211;-77
2022/12/18 06:22:34;;;;;;;12.73;8.50;;;;;;;4.05;100.00;62417.78;5006832;28;20250;-76
2022/12/18 06:25:01;;;;;;;8.27;6.85;;;;;;;4.06;100.00;62416.81;5004472;28;20527;-74
2022/12/18 06:27:29;;;;;;;9.55;7.53;;;;;;;4.11;100.00;62423.94;4992122;28;20234;-76
2022/12/18 06:29:56;;;;;;;10.35;7.75;;;;;;;3.90;100.00;62397.81;5005843;28;20231;-76
2022/12/18 06:32:24;;;;;;;8.35;7.43;;;;;;;3.98;100.00;62408.59;5006260;28;20219;-75
2022/12/18 06:34:51;;;;;;;9.77;7.20;;;;;;;4.04;100.00;62417.25;4999489;28;20204;-76
2022/12/18 06:37:18;;;;;;;8.70;6.68;;;;;;;4.06;100.00;62418.81;5006588;28;20261;-75
2022/12/18 06:39:45;;;;;;;10.18;6.72;;;;;;;4.03;100.00;62415.72;5004233;28;20242;-76
2022/12/18 06:42:12;;;;;;;13.50;7.30;;;;;;;4.12;100.00;62415.44;5003367;28;20239;-75
2022/12/18 06:44:39;;;;;;;11.68;7.00;;;;;;;4.09;100.00;62419.88;5005560;28;20404;-76
2022/12/18 06:47:06;;;;;;;10.05;6.15;;;;;;;4.16;100.00;62424.56;5003035;28;20254;-75
2022/12/18 06:49:34;;;;;;;8.23;6.35;;;;;;;4.15;100.00;62425.56;5004525;28;20207;-76
2022/12/18 06:52:01;;;;;;;8.30;6.60;;;;;;;3.93;100.00;62402.91;5003973;28;20215;-77
2022/12/18 06:54:28;;;;;;;8.60;5.85;;;;;;;3.92;100.00;62404.91;5003821;28;20460;-76
2022/12/18 06:56:55;;;;;;;11.38;7.57;;;;;;;3.81;100.00;62393.09;5000658;28;20230;-76
2022/12/18 06:59:22;;;;;;;7.72;6.32;;;;;;;3.83;100.00;62395.66;5005740;28;20203;-75
2022/12/18 07:01:49;;;;;;;14.80;6.38;;;;;;;3.98;100.00;62411.09;5000415;28;20438;-77
2022/12/18 07:04:16;;;;;;;8.48;6.50;;;;;;;4.07;100.00;62419.84;4998815;28;20199;-76
2022/12/18 07:06:44;;;;;;;12.25;7.05;;;;;;;4.24;100.00;62439.84;5001390;28;20306;-75
2022/12/18 07:09:11;;;;;;;8.25;5.47;;;;;;;4.07;100.00;62419.84;5001738;28;20205;-78
2022/12/18 07:11:38;;;;;;;10.65;7.05;;;;;;;3.89;100.00;62398.81;5002240;28;20253;-75
2022/12/18 07:14:05;;;;;;;8.75;6.20;;;;;;;4.14;100.00;62427.06;5002931;28;20203;-77
2022/12/18 07:16:32;;;;;;;9.65;6.55;;;;;;;4.30;100.00;62443.50;5002763;28;20241;-77
2022/12/18 07:18:59;;;;;;;9.57;6.32;;;;;;;4.21;100.00;62434.25;5002490;28;20205;-75
2022/12/18 07:21:26;;;;;;;8.45;5.90;;;;;;;4.29;100.00;62439.97;5004744;28;20374;-76
2022/12/18 07:23:57;;;;;;;10.40;7.05;;;;;;;4.32;100.00;62446.09;5002384;28;20230;-76
2022/12/18 07:26:24;;;;;;;14.10;5.90;;;;;;;4.32;100.00;62448.09;5003784;28;20217;-75
2022/12/18 07:28:51;;;;;;;8.05;6.18;;;;;;;4.27;100.00;62440.41;5002119;28;20269;-75
2022/12/18 07:31:20;;;;;;;8.80;6.35;;;;;;;4.33;100.00;62449.63;5002148;28;20274;-75
2022/12/18 07:33:47;;;;;;;7.80;5.90;;;;;;;4.34;100.00;62445.09;5003703;28;20203;-76
2022/12/18 07:36:15;;;;;;;9.40;6.68;;;;;;;4.24;100.00;62437.34;4999929;28;20479;-77
2022/12/18 07:38:42;;;;;;;10.82;7.30;;;;;;;4.25;100.00;62441.41;5000824;28;20203;-75
2022/12/18 07:41:12;;;;;;;7.57;6.35;;;;;;;4.20;100.00;62436.25;5002600;28;20226;-75
2022/12/18 07:43:40;;;;;;;11.10;6.90;;;;;;;4.23;100.00;62436.28;4990518;28;20540;-75
2022/12/18 07:46:09;;;;;;;8.35;6.80;;;;;;;4.31;100.00;62445.06;4998248;28;20223;-77
2022/12/18 07:48:36;;;;;;;9.27;6.70;;;;;;;4.35;100.00;62448.66;5001111;28;20279;-76
2022/12/18 07:51:26;;;;;;;10.35;6.30;;;;;;;4.24;100.00;62435.34;5002744;28;20223;-76
2022/12/18 07:53:53;;;;;;;8.93;6.78;;;;;;;4.05;100.00;62418.31;5003988;28;20214;-76
2022/12/18 07:56:25;;;;;;;12.15;7.72;;;;;;;4.26;100.00;62436.88;5002827;28;20231;-76
2022/12/18 07:58:52;;;;;;;11.38;6.65;;;;;;;4.29;100.00;62445.53;5002077;28;20203;-75
2022/12/18 08:01:18;;;;;;;12.15;7.82;;;;;;;4.40;100.00;62451.78;4999717;28;20286;-76
2022/12/18 08:03:45;;;;;;;12.35;7.78;;;;;;;4.41;100.00;62449.78;4999449;28;20203;-76
2022/12/18 08:06:16;;;;;;;8.43;6.90;;;;;;;4.56;100.00;62467.75;5004431;28;20258;-76
2022/12/18 08:08:43;;;;;;;8.75;5.65;;;;;;;4.55;100.00;62477.31;5000597;28;20562;-75
2022/12/18 08:11:10;;;;;;;11.13;7.03;;;;;;;4.52;100.00;62463.63;5002417;28;20215;-77
2022/12/18 08:13:38;;;;;;;10.68;7.28;;;;;;;4.49;100.00;62460.53;5001460;28;20203;-76
2022/12/18 08:16:07;;;;;;;13.75;8.63;;;;;;;4.15;100.00;62426.06;4999496;28;20262;-76
2022/12/18 08:18:36;;;;;;;13.73;8.95;;;;;;;4.22;100.00;62440.31;5003625;28;20203;-75
2022/12/18 08:21:13;;;;;;;16.48;10.98;;;;;;;4.34;100.00;62445.09;5002055;28;20243;-77
2022/12/18 08:23:40;;;;;;;15.00;10.48;;;;;;;4.20;100.00;62430.69;5003531;28;20201;-77
2022/12/18 08:26:08;;;;;;;18.40;8.93;;;;;;;4.33;100.00;62444.59;5003169;28;20277;-77
2022/12/18 08:28:35;;;;;;;12.75;8.32;;;;;;;4.43;100.00;62456.88;4998298;28;20458;-78
2022/12/18 08:31:04;;;;;;;15.23;9.80;;;;;;;4.43;100.00;62456.88;4999369;28;20266;-77
2022/12/18 08:33:31;;;;;;;14.60;9.57;;;;;;;4.46;100.00;62463.00;5004154;28;20275;-77
2022/12/18 08:35:59;;;;;;;16.42;10.25;;;;;;;4.34;100.00;62447.63;5004051;28;20219;-77
2022/12/18 08:38:27;;;;;;;16.05;10.80;;;;;;;4.49;100.00;62463.56;5005382;28;20222;-77
2022/12/18 08:41:00;;;;;;;15.02;10.27;;;;;;;4.61;100.00;62475.41;5006879;28;20234;-77
2022/12/18 08:46:14;;;;;;;19.45;11.95;;;;;;;4.57;100.00;62466.75;5008623;28;20281;-77
2022/12/18 08:48:41;;;;;;;19.17;10.63;;;;;;;4.71;100.00;62486.22;5005497;28;20265;-76
2022/12/18 08:51:09;;;;;;;18.17;11.43;;;;;;;4.71;100.00;62483.69;5004192;28;20219;-76
2022/12/18 08:53:36;;;;;;;25.70;13.40;;;;;;;4.67;100.00;62484.13;5005541;28;20322;-76
2022/12/18 08:56:05;;;;;;;19.60;10.98;;;;;;;4.74;100.00;62491.81;5005076;28;20527;-76
2022/12/18 08:58:32;;;;;;;17.23;10.10;;;;;;;4.69;100.00;62486.69;5007314;28;20199;-77
2022/12/18 09:01:01;;;;;;;15.20;10.38;;;;;;;4.77;100.00;62494.41;5005228;28;20331;-76
2022/12/18 09:03:29;;;;;;;18.67;11.20;;;;;;;4.67;100.00;62482.13;5004840;28;20200;-76
2022/12/18 09:05:56;;;;;;;15.68;10.63;;;;;;;4.80;100.00;62494.47;5006240;28;20207;-75
2022/12/18 09:08:24;;;;;;;21.15;11.95;;;;;;;4.79;100.00;62490.91;5006359;28;20230;-77
2022/12/18 09:10:54;;;;;;;20.75;12.30;;;;;;;4.76;100.00;62490.88;5004923;28;20250;-76
2022/12/18 09:13:24;;;;;;;20.02;13.20;;;;;;;4.73;100.00;62485.25;4999992;28;20203;-76
2022/12/18 09:15:53;;;;;;;21.23;13.55;;;;;;;4.81;100.00;62490.44;5004603;28;20219;-76
2022/12/18 09:18:21;;;;;;;19.60;12.60;;;;;;;4.79;100.00;62490.91;5005841;28;20467;-76
2022/12/18 09:24:16;;;;;;;19.38;13.60;;;;;;;4.77;100.00;62488.84;4996579;28;20230;-77
2022/12/18 09:26:43;;;;;;;18.02;11.75;;;;;;;4.60;100.00;62472.38;5308304;23;20403;-77
2022/12/18 09:29:10;;;;;;;25.67;14.07;;;;;;;4.34;100.00;62445.09;5005853;28;20258;-75
2022/12/18 09:31:39;;;;;;;26.38;14.70;;;;;;;4.48;100.00;62462.56;5006893;28;20230;-76
2022/12/18 09:34:36;;;;;;;25.90;14.60;;;;;;;4.46;100.00;62457.97;5008630;28;20218;-78
2022/12/18 09:37:04;;;;;;;29.13;15.88;;;;;;;4.62;100.00;62476.94;5003316;28;20235;-75
2022/12/18 09:39:31;;;;;;;28.40;15.82;;;;;;;4.69;100.00;62486.19;5003250;28;20200;-76
2022/12/18 09:41:59;;;;;;;25.23;15.07;;;;;;;4.69;100.00;62481.13;5001209;28;20223;-77
2022/12/18 09:44:32;;;;;;;28.83;15.57;;;;;;;4.76;100.00;62490.34;5006318;28;20207;-79
2022/12/18 09:47:09;;;;;;;26.80;13.63;;;;;;;4.29;100.00;62443.00;5005197;28;20579;-77
2022/12/18 09:49:41;;;;;;;27.13;14.57;;;;;;;4.42;100.00;62458.38;5008035;28;20222;-76
2022/12/18 09:52:16;;;;;;;27.08;14.40;;;;;;;4.63;100.00;62475.47;5007893;28;20278;-77
2022/12/18 09:54:47;;;;;;;25.40;14.52;;;;;;;4.65;100.00;62477.00;5006465;28;20252;-76
2022/12/18 09:57:17;;;;;;;24.50;15.13;;;;;;;4.85;100.00;62500.13;5005217;28;20571;-77
2022/12/18 09:59:51;;;;;;;25.85;14.80;;;;;;;4.86;100.00;62503.69;5006947;28;20233;-78
2022/12/18 10:02:20;;;;;;;26.80;15.98;;;;;;;4.96;100.00;62508.41;5005148;28;20238;-78
2022/12/18 10:04:59;;;;;;;22.65;14.10;;;;;;;4.73;100.00;62485.75;4999549;28;20441;-76
2022/12/18 10:07:36;;;;;;;15.65;11.63;;;;;;;4.52;100.00;62464.13;4997905;28;20219;-77
2022/12/18 10:10:14;;;;;;;23.50;13.55;;;;;;;4.65;100.00;62477.53;5001863;28;20211;-76
2022/12/18 10:12:50;;;;;;;18.15;12.52;;;;;;;4.71;100.00;62483.69;4996775;28;20256;-77
2022/12/18 10:15:24;;;;;;;15.40;9.70;;;;;;;4.59;100.00;62471.34;4999941;28;20195;-77
2022/12/18 10:17:57;;;;;;;21.63;11.38;;;;;;;4.54;100.00;62465.69;5007404;28;20198;-76
2022/12/18 10:20:33;;;;;;;19.65;10.48;;;;;;;4.89;100.00;62501.19;5005656;28;20198;-77
2022/12/18 10:23:11;;;;;;;17.05;11.40;;;;;;;4.47;100.00;62455.94;5004518;28;20195;-77
2022/12/18 10:25:45;;;;;;;20.13;12.52;;;;;;;3.91;100.00;62398.88;5005240;28;20246;-77
2022/12/18 10:28:15;;;;;;;19.95;12.98;;;;;;;4.08;100.00;62418.34;5004465;28;20221;-77
2022/12/18 10:30:44;;;;;;;20.17;12.45;;;;;;;4.40;100.00;62456.31;5004307;28;20400;-76
2022/12/18 10:33:13;;;;;;;23.90;12.77;;;;;;;4.61;100.00;62475.94;5004803;28;20206;-77
2022/12/18 10:35:44;;;;;;;21.35;13.02;;;;;;;4.70;100.00;62479.63;5006516;28;20334;-79
2022/12/18 10:38:25;;;;;;;19.88;13.38;;;;;;;4.31;100.00;62439.50;5005124;28;20204;-77
2022/12/18 10:40:54;;;;;;;21.48;13.05;;;;;;;4.60;100.00;62472.38;5004297;28;20242;-77
2022/12/18 10:43:23;;;;;;;19.20;10.77;;;;;;;4.66;100.00;62483.59;5002090;28;20211;-76
2022/12/18 10:46:02;;;;;;;19.88;12.50;;;;;;;4.73;100.00;62487.75;5001796;28;20528;-76
2022/12/18 10:48:29;;;;;;;20.75;13.05;;;;;;;4.81;100.00;62496.00;5002527;28;20234;-76
2022/12/18 10:50:57;;;;;;;18.10;11.65;;;;;;;4.84;100.00;62494.03;5002438;28;20242;-78
2022/12/18 10:53:28;;;;;;;22.00;13.10;;;;;;;4.71;100.00;62483.19;5003600;28;20203;-77
2022/12/18 10:55:56;;;;;;;24.95;12.57;;;;;;;4.67;100.00;62479.59;5003372;28;20214;-77
2022/12/18 10:58:28;;;;;;;23.58;11.95;;;;;;;4.69;100.00;62481.63;5003718;28;20202;-77
2022/12/18 11:01:13;;;;;;;21.08;12.40;;;;;;;4.73;100.00;62483.22;5001130;28;20227;-77
2022/12/18 11:03:42;;;;;;;21.17;12.35;;;;;;;4.83;100.00;62498.06;5001214;28;20207;-76
2022/12/18 11:06:11;;;;;;;19.10;11.57;;;;;;;4.94;100.00;62504.34;5004496;28;20227;-77
2022/12/18 11:08:42;;;;;;;20.25;11.43;;;;;;;4.73;100.00;62485.75;5001871;28;20230;-77
2022/12/18 11:11:20;;;;;;;14.48;9.23;;;;;;;4.62;100.00;62469.38;5004903;28;20247;-76
2022/12/18 11:13:58;;;;;;;16.88;10.68;;;;;;;4.45;99.51;62458.94;5003802;28;20234;-78
2022/12/18 11:16:26;;;;;;;15.02;9.57;;;;;;;4.30;99.37;62446.03;5003190;28;20223;-77
2022/12/18 11:18:53;;;;;;;17.17;10.52;;;;;;;4.40;98.82;62451.78;5001141;28;20203;-77
2022/12/18 11:21:20;;;;;;;12.40;8.30;;;;;;;4.42;97.07;62455.84;4992144;28;20308;-78
2022/12/18 11:23:51;;;;;;;14.00;9.32;;;;;;;4.38;96.45;62449.72;4993477;28;20492;-77
2022/12/18 11:26:18;;;;;;;12.68;8.27;;;;;;;4.45;97.38;62456.44;5003330;28;20232;-76
2022/12/18 11:28:50;;;;;;;12.88;8.45;;;;;;;4.38;96.50;62449.72;5006656;28;20278;-77
2022/12/18 11:31:25;;;;;;;12.93;7.97;;;;;;;4.26;97.58;62439.91;5006035;28;20219;-76
2022/12/18 11:34:01;;;;;;;11.85;7.95;;;;;;;4.41;96.79;62457.88;5003620;28;20205;-76
2022/12/18 11:36:34;;;;;;;12.10;6.50;;;;;;;4.20;93.56;62433.72;5003634;28;20219;-77
2022/12/18 11:39:14;;;;;;;12.93;8.45;;;;;;;4.21;94.80;62432.22;5005403;28;20199;-77
2022/12/18 11:44:42;;;;;;;15.93;9.40;;;;;;;4.17;95.66;62433.16;5003516;28;20194;-78
2022/12/18 11:47:20;;;;;;;17.17;8.77;;;;;;;4.12;95.82;62425.00;5004984;28;20223;-76
2022/12/18 11:49:50;;;;;;;12.02;8.23;;;;;;;4.21;93.73;62431.72;5004581;28;20215;-76